Time;durP1;ratioP1;P1;durP2;ratioP2;P2;SDS_P1;SDS_P2;PMS_P1;PMS_P2;Temp;Humidity;BMP_temperature;BMP_pressure;BME280_temperature;BME280_humidity;BME280_pressure;Samples;Min_cycle;Max_cycle;Signal;HPM_P1;HPM_P2
2021/01/21 00:00:06;;;;;;;21.75;11.27;;;;;;;-2.35;100.00;94843.19;1032516;28;20637;-77
2021/01/21 00:00:39;;;;;;;24.45;12.40;;;;;;;-2.25;100.00;94856.28;1028432;28;20027;-76
2021/01/21 00:01:10;;;;;;;21.52;11.65;;;;;;;-2.34;100.00;94852.66;1036583;28;20772;-77
2021/01/21 00:01:40;;;;;;;23.15;12.55;;;;;;;-2.24;100.00;94858.75;1028219;28;20314;-77
2021/01/21 00:02:12;;;;;;;22.85;11.15;;;;;;;-2.25;100.00;94864.88;1032488;28;20025;-77
2021/01/21 00:02:43;;;;;;;22.30;12.70;;;;;;;-2.33;100.00;94864.72;1028489;28;20107;-76
2021/01/21 00:03:35;;;;;;;23.50;12.80;;;;;;;-2.43;100.00;94864.63;1036555;28;20032;-77
2021/01/21 00:04:06;;;;;;;21.45;11.25;;;;;;;-2.42;100.00;94858.47;1032507;28;20061;-77
2021/01/21 00:04:39;;;;;;;22.08;11.88;;;;;;;-2.37;100.00;94871.09;1028431;28;20357;-77
2021/01/21 00:05:10;;;;;;;20.13;11.98;;;;;;;-2.47;100.00;94850.22;1028563;28;20697;-77
2021/01/21 00:05:41;;;;;;;20.70;11.65;;;;;;;-2.45;100.00;94855.31;1032285;28;20026;-77
2021/01/21 00:06:12;;;;;;;22.05;11.50;;;;;;;-2.39;100.00;94872.97;1040580;28;20022;-77
2021/01/21 00:06:45;;;;;;;21.40;11.45;;;;;;;-2.47;100.00;94876.22;1036545;28;20046;-77
2021/01/21 00:07:16;;;;;;;22.83;11.90;;;;;;;-2.50;100.00;94871.25;1040629;28;20029;-77
2021/01/21 00:07:47;;;;;;;21.98;11.85;;;;;;;-2.43;100.00;94880.22;1032287;28;20278;-77
2021/01/21 00:08:18;;;;;;;20.50;11.80;;;;;;;-2.56;100.00;94849.19;1032451;28;20117;-77
2021/01/21 00:08:49;;;;;;;21.95;12.18;;;;;;;-2.40;100.00;94873.91;1028392;28;20150;-77
2021/01/21 00:09:20;;;;;;;21.67;12.05;;;;;;;-2.47;100.00;94871.84;1032484;28;20030;-77
2021/01/21 00:09:52;;;;;;;21.08;11.73;;;;;;;-2.52;100.00;94866.19;1040477;28;20101;-77
2021/01/21 00:10:23;;;;;;;21.48;12.75;;;;;;;-2.45;100.00;94871.72;1024484;28;20519;-77
2021/01/21 00:10:55;;;;;;;21.75;12.73;;;;;;;-2.54;100.00;94870.69;1032420;28;20018;-77
2021/01/21 00:11:26;;;;;;;21.80;13.48;;;;;;;-2.56;100.00;94869.13;1020590;28;20342;-77
2021/01/21 00:11:59;;;;;;;22.48;11.80;;;;;;;-2.75;100.00;94841.19;1032276;28;20280;-77
2021/01/21 00:12:30;;;;;;;23.27;13.27;;;;;;;-2.56;100.00;94858.75;1032354;28;20331;-77
2021/01/21 00:13:00;;;;;;;21.50;12.00;;;;;;;-2.54;100.00;94862.06;1032452;28;20022;-77
2021/01/21 00:13:31;;;;;;;18.15;11.55;;;;;;;-2.58;100.00;94855.44;1028461;28;20022;-77
2021/01/21 00:14:03;;;;;;;22.45;12.23;;;;;;;-2.52;100.00;94853.19;1032296;28;20077;-77
2021/01/21 00:14:33;;;;;;;22.33;12.20;;;;;;;-2.53;100.00;94854.13;1028373;28;20029;-77
2021/01/21 00:15:05;;;;;;;23.15;12.88;;;;;;;-2.52;100.00;94847.97;1036492;28;20029;-77
2021/01/21 00:15:36;;;;;;;21.33;11.32;;;;;;;-2.74;100.00;94809.09;1028463;28;20023;-77
2021/01/21 00:16:07;;;;;;;23.45;12.52;;;;;;;-2.56;100.00;94849.19;1032423;28;20257;-77
2021/01/21 00:16:38;;;;;;;19.95;11.77;;;;;;;-2.56;100.00;94848.34;1032342;28;20470;-76
2021/01/21 00:17:09;;;;;;;24.52;12.65;;;;;;;-2.55;100.00;94850.81;1036496;28;20264;-77
2021/01/21 00:17:40;;;;;;;21.33;12.05;;;;;;;-2.60;100.00;94826.16;1024497;28;20119;-76
2021/01/21 00:18:11;;;;;;;27.90;12.68;;;;;;;-2.50;100.00;94851.28;1032254;28;20023;-77
2021/01/21 00:18:41;;;;;;;24.52;13.45;;;;;;;-2.49;100.00;94845.16;1028425;28;20030;-77
2021/01/21 00:19:12;;;;;;;24.00;13.65;;;;;;;-2.52;100.00;94845.38;1028384;28;20089;-77
2021/01/21 00:19:43;;;;;;;25.40;12.77;;;;;;;-2.58;100.00;94839.84;1036514;28;20026;-77
2021/01/21 00:20:14;;;;;;;24.17;12.23;;;;;;;-2.64;100.00;94843.78;1024450;29;20023;-76
2021/01/21 00:20:45;;;;;;;22.67;12.25;;;;;;;-2.80;100.00;94809.56;1028268;28;20372;-77
2021/01/21 00:21:15;;;;;;;24.70;12.00;;;;;;;-2.60;100.00;94832.19;1032425;28;20291;-77
2021/01/21 00:21:46;;;;;;;22.65;12.57;;;;;;;-2.68;100.00;94835.41;1032384;28;20041;-76
2021/01/21 00:22:17;;;;;;;21.80;12.43;;;;;;;-2.78;100.00;94816.31;1028279;28;20031;-77
2021/01/21 00:22:47;;;;;;;23.45;12.73;;;;;;;-2.73;100.00;94829.75;1028268;28;20030;-76
2021/01/21 00:23:18;;;;;;;20.75;12.73;;;;;;;-2.70;100.00;94833.84;1028436;28;20037;-77
2021/01/21 00:23:49;;;;;;;25.65;12.82;;;;;;;-2.76;100.00;94823.97;1032445;28;20030;-77
2021/01/21 00:24:20;;;;;;;22.48;12.07;;;;;;;-3.04;100.00;94784.63;1024452;28;20031;-76
2021/01/21 00:24:51;;;;;;;21.05;11.95;;;;;;;-2.66;100.00;94838.69;1032373;28;20257;-76
2021/01/21 00:25:21;;;;;;;23.60;12.18;;;;;;;-2.72;100.00;94846.97;1028428;28;20019;-77
2021/01/21 00:25:52;;;;;;;22.15;12.23;;;;;;;-2.69;100.00;94851.13;1028418;28;20027;-77
2021/01/21 00:26:24;;;;;;;21.08;11.88;;;;;;;-2.67;100.00;94854.41;1040504;28;20502;-77
2021/01/21 00:26:55;;;;;;;22.58;12.38;;;;;;;-2.67;100.00;94852.63;1036355;28;20364;-77
2021/01/21 00:27:26;;;;;;;22.25;12.90;;;;;;;-2.73;100.00;94850.53;1036491;28;20308;-76
2021/01/21 00:27:57;;;;;;;23.77;12.02;;;;;;;-2.73;100.00;94860.94;1036440;28;20037;-77
2021/01/21 00:28:28;;;;;;;20.83;11.63;;;;;;;-2.70;100.00;94865.03;1036424;28;20269;-77
2021/01/21 00:28:58;;;;;;;21.55;11.15;;;;;;;-2.74;100.00;94861.03;1036285;28;20053;-76
2021/01/21 00:29:30;;;;;;;20.80;12.02;;;;;;;-2.73;100.00;94858.31;1032390;28;20018;-77
2021/01/21 00:30:03;;;;;;;20.73;11.95;;;;;;;-2.80;100.00;94851.97;1040515;28;20025;-76
2021/01/21 00:30:34;;;;;;;23.38;12.20;;;;;;;-2.69;100.00;94867.53;1028445;28;20023;-77
2021/01/21 00:31:05;;;;;;;21.48;10.93;;;;;;;-2.70;100.00;94865.88;1036326;28;20425;-77
2021/01/21 00:31:36;;;;;;;21.83;11.95;;;;;;;-2.69;100.00;94861.50;1036368;28;20022;-76
2021/01/21 00:32:06;;;;;;;20.77;11.40;;;;;;;-2.74;100.00;94842.84;1032410;28;20026;-76
2021/01/21 00:32:37;;;;;;;22.77;12.02;;;;;;;-2.63;100.00;94858.44;1028236;28;20488;-77
2021/01/21 00:33:08;;;;;;;24.73;12.07;;;;;;;-2.63;100.00;94857.59;1028214;28;20117;-77
2021/01/21 00:33:39;;;;;;;18.27;11.40;;;;;;;-2.64;100.00;94859.38;1024376;29;20416;-76
2021/01/21 00:34:10;;;;;;;19.92;11.13;;;;;;;-2.63;100.00;94848.03;1028340;28;20054;-76
2021/01/21 00:34:41;;;;;;;20.60;11.43;;;;;;;-2.64;100.00;94851.56;1040536;28;20060;-76
2021/01/21 00:35:14;;;;;;;23.10;12.27;;;;;;;-2.76;100.00;94837.78;1036303;28;20275;-77
2021/01/21 00:35:45;;;;;;;20.60;11.52;;;;;;;-2.69;100.00;94851.13;1036443;28;20477;-76
2021/01/21 00:36:15;;;;;;;25.33;12.40;;;;;;;-2.72;100.00;94854.75;1028355;28;20258;-76
2021/01/21 00:36:46;;;;;;;19.80;11.30;;;;;;;-2.67;100.00;94851.81;1036468;28;20113;-77
2021/01/21 00:37:17;;;;;;;21.63;12.30;;;;;;;-2.68;100.00;94845.78;1032361;28;20526;-77
2021/01/21 00:37:47;;;;;;;20.55;11.90;;;;;;;-2.67;100.00;94846.63;1036374;28;20123;-76
2021/01/21 00:38:18;;;;;;;21.83;11.95;;;;;;;-2.74;100.00;94835.06;1032420;28;20162;-77
2021/01/21 00:38:49;;;;;;;19.95;11.70;;;;;;;-2.70;100.00;94849.44;1028409;28;20054;-76
2021/01/21 00:39:19;;;;;;;21.48;11.75;;;;;;;-2.78;100.00;94838.88;1032277;28;20037;-77
2021/01/21 00:39:50;;;;;;;20.23;12.07;;;;;;;-2.66;100.00;94843.06;1036329;28;20410;-77
2021/01/21 00:40:21;;;;;;;20.75;11.57;;;;;;;-2.62;100.00;94848.84;1032441;28;20030;-76
2021/01/21 00:40:52;;;;;;;18.98;11.27;;;;;;;-2.80;100.00;94814.75;1032312;28;20022;-77
2021/01/21 00:41:22;;;;;;;20.10;12.10;;;;;;;-2.64;100.00;94842.97;1036131;28;20026;-76
2021/01/21 00:41:54;;;;;;;21.02;12.05;;;;;;;-2.66;100.00;94840.47;1028371;28;20084;-76
2021/01/21 00:42:25;;;;;;;20.08;11.30;;;;;;;-2.78;100.00;94829.28;1036326;28;20525;-77
2021/01/21 00:42:56;;;;;;;19.55;11.65;;;;;;;-2.67;100.00;94841.41;1024470;28;20012;-77
2021/01/21 00:43:28;;;;;;;22.70;12.15;;;;;;;-2.69;100.00;94831.13;1032227;28;20448;-76
2021/01/21 00:43:58;;;;;;;22.55;12.18;;;;;;;-2.72;100.00;94826.19;1028258;28;20167;-76
2021/01/21 00:44:29;;;;;;;22.83;12.75;;;;;;;-2.71;100.00;94820.06;1024775;28;20116;-76
2021/01/21 00:45:00;;;;;;;21.40;11.93;;;;;;;-2.71;100.00;94819.25;1028934;28;20023;-76
2021/01/21 00:45:31;;;;;;;22.02;11.93;;;;;;;-2.75;100.00;94817.81;1032662;28;20050;-76
2021/01/21 00:46:01;;;;;;;19.83;11.05;;;;;;;-2.77;100.00;94817.13;1028699;28;20522;-76
2021/01/21 00:46:32;;;;;;;20.58;11.15;;;;;;;-2.88;100.00;94800.63;1032973;28;20229;-76
2021/01/21 00:47:03;;;;;;;23.88;11.57;;;;;;;-2.78;100.00;94815.47;1029376;28;20117;-76
2021/01/21 00:47:34;;;;;;;20.85;10.88;;;;;;;-2.86;100.00;94805.69;1032712;28;20113;-76
2021/01/21 00:48:05;;;;;;;20.20;11.30;;;;;;;-2.82;100.00;94804.50;1036946;28;20025;-76
2021/01/21 00:48:37;;;;;;;20.30;10.32;;;;;;;-2.80;100.00;94809.56;1032798;28;20014;-75
2021/01/21 00:49:10;;;;;;;18.65;10.43;;;;;;;-2.78;100.00;94807.69;1033013;28;20761;-75
2021/01/21 00:49:40;;;;;;;16.83;10.52;;;;;;;-2.79;100.00;94808.63;1032511;28;20029;-77
2021/01/21 00:50:12;;;;;;;17.95;9.98;;;;;;;-2.88;100.00;94800.63;1032807;28;20369;-76
2021/01/21 00:50:42;;;;;;;19.13;10.50;;;;;;;-2.78;100.00;94818.91;1037055;28;20406;-76
2021/01/21 00:51:14;;;;;;;20.10;10.60;;;;;;;-2.78;100.00;94823.28;1032751;28;20269;-76
2021/01/21 00:51:45;;;;;;;19.27;10.32;;;;;;;-2.82;100.00;94825.28;1024781;28;20496;-77
2021/01/21 00:52:16;;;;;;;19.20;10.50;;;;;;;-2.99;100.00;94803.25;1037322;28;20022;-76
2021/01/21 00:52:47;;;;;;;19.08;10.07;;;;;;;-2.90;100.00;94831.09;1028714;28;20273;-76
2021/01/21 00:53:18;;;;;;;17.27;10.05;;;;;;;-2.98;100.00;94802.28;1020999;29;20033;-76
2021/01/21 00:53:49;;;;;;;17.13;10.15;;;;;;;-2.79;100.00;94832.81;1032835;28;20318;-76
2021/01/21 00:54:20;;;;;;;19.40;11.23;;;;;;;-2.90;100.00;94818.09;1028752;28;20022;-76
2021/01/21 00:54:51;;;;;;;19.63;9.98;;;;;;;-2.79;100.00;94832.00;1032874;28;20022;-77
2021/01/21 00:55:21;;;;;;;17.67;10.68;;;;;;;-2.76;100.00;94831.78;1029419;28;20035;-76
2021/01/21 00:55:52;;;;;;;19.70;10.93;;;;;;;-2.77;100.00;94843.94;1029059;28;20023;-76
2021/01/21 00:56:23;;;;;;;19.95;10.85;;;;;;;-2.82;100.00;94830.50;1028499;28;20103;-76
2021/01/21 00:56:54;;;;;;;24.70;12.15;;;;;;;-2.77;100.00;94835.31;1033208;28;20022;-76
2021/01/21 00:57:25;;;;;;;21.60;11.15;;;;;;;-2.85;100.00;94844.53;1028943;28;20262;-76
2021/01/21 00:57:56;;;;;;;20.00;11.45;;;;;;;-3.05;100.00;94816.72;1041082;28;20383;-77
2021/01/21 00:58:27;;;;;;;19.23;10.60;;;;;;;-2.85;100.00;94836.75;1029065;28;20313;-76
2021/01/21 00:58:57;;;;;;;20.38;11.45;;;;;;;-2.88;100.00;94833.56;1037325;28;20025;-76
2021/01/21 00:59:28;;;;;;;21.92;11.48;;;;;;;-2.92;100.00;94832.97;1032968;28;20052;-76
2021/01/21 00:59:59;;;;;;;17.25;10.27;;;;;;;-2.94;100.00;94818.47;1033062;28;20018;-76
2021/01/21 01:00:30;;;;;;;19.00;11.00;;;;;;;-2.87;100.00;94835.22;1037024;28;20141;-76
2021/01/21 01:01:00;;;;;;;19.30;11.45;;;;;;;-2.85;100.00;94834.16;1041182;28;20029;-76
2021/01/21 01:01:31;;;;;;;21.67;11.27;;;;;;;-2.84;100.00;94829.75;1032981;28;20402;-76
2021/01/21 01:02:02;;;;;;;23.58;11.00;;;;;;;-2.84;100.00;94832.38;1040890;28;20025;-77
2021/01/21 01:02:33;;;;;;;22.10;11.65;;;;;;;-2.89;100.00;94832.75;1028270;28;20129;-78
2021/01/21 01:03:06;;;;;;;19.83;11.27;;;;;;;-3.00;100.00;94832.75;1036327;28;20053;-78
2021/01/21 01:03:37;;;;;;;18.52;10.63;;;;;;;-3.16;100.00;94827.94;1032060;28;20029;-78
2021/01/21 01:04:08;;;;;;;18.52;10.45;;;;;;;-2.97;100.00;94847.28;1027962;28;20285;-77
2021/01/21 01:04:40;;;;;;;19.90;11.20;;;;;;;-2.97;100.00;94844.69;1032123;28;20822;-78
2021/01/21 01:05:12;;;;;;;18.17;10.80;;;;;;;-2.94;100.00;94845.28;1032326;28;20029;-77
2021/01/21 01:05:43;;;;;;;20.20;9.95;;;;;;;-2.95;100.00;94848.81;1036386;28;20625;-78
2021/01/21 01:06:13;;;;;;;17.75;10.25;;;;;;;-2.98;100.00;94846.44;1028043;28;20262;-78
2021/01/21 01:06:44;;;;;;;18.70;10.45;;;;;;;-2.97;100.00;94852.47;1028197;28;20482;-77
2021/01/21 01:07:15;;;;;;;17.27;9.88;;;;;;;-3.19;100.00;94820.38;1028200;28;20021;-77
2021/01/21 01:07:46;;;;;;;19.38;10.85;;;;;;;-3.02;100.00;94855.44;1032276;28;20045;-77
2021/01/21 01:08:17;;;;;;;19.35;10.35;;;;;;;-3.06;100.00;94861.81;1036285;28;20048;-78
2021/01/21 01:08:48;;;;;;;18.05;10.55;;;;;;;-3.15;100.00;94858.16;1036173;28;20268;-77
2021/01/21 01:09:19;;;;;;;18.60;10.55;;;;;;;-3.10;100.00;94857.78;1036286;28;20553;-77
2021/01/21 01:09:49;;;;;;;18.98;10.40;;;;;;;-3.10;100.00;94858.63;1036310;28;20056;-77
2021/01/21 01:10:21;;;;;;;21.17;10.70;;;;;;;-3.08;100.00;94859.34;1036145;28;20753;-77
2021/01/21 01:10:51;;;;;;;19.77;10.52;;;;;;;-3.12;100.00;94855.31;1024231;29;20094;-77
2021/01/21 01:11:22;;;;;;;19.15;9.93;;;;;;;-3.08;100.00;94858.53;1040428;28;20256;-77
2021/01/21 01:11:53;;;;;;;20.35;10.40;;;;;;;-3.08;100.00;94850.72;1036236;28;20018;-77
2021/01/21 01:12:24;;;;;;;19.08;10.52;;;;;;;-3.10;100.00;94850.00;1036220;28;20451;-77
2021/01/21 01:12:55;;;;;;;18.17;10.05;;;;;;;-3.12;100.00;94844.09;1036345;28;20268;-76
2021/01/21 01:13:25;;;;;;;17.17;10.30;;;;;;;-3.13;100.00;94845.06;1032229;28;20471;-78
2021/01/21 01:13:57;;;;;;;18.90;10.35;;;;;;;-3.27;100.00;94826.19;1032273;28;20022;-77
2021/01/21 01:14:27;;;;;;;23.10;10.93;;;;;;;-3.16;100.00;94840.09;1024182;28;20023;-78
2021/01/21 01:14:58;;;;;;;20.08;10.20;;;;;;;-3.15;100.00;94846.94;1028082;28;20270;-77
2021/01/21 01:15:31;;;;;;;18.63;10.43;;;;;;;-3.17;100.00;94843.63;1028210;28;20113;-77
2021/01/21 01:16:02;;;;;;;17.80;9.88;;;;;;;-3.12;100.00;94846.69;1028253;28;20081;-77
2021/01/21 01:16:33;;;;;;;18.58;10.32;;;;;;;-3.08;100.00;94845.53;1028030;28;20344;-78
2021/01/21 01:17:04;;;;;;;19.92;10.63;;;;;;;-3.04;100.00;94849.53;1036093;28;20030;-78
2021/01/21 01:17:35;;;;;;;17.58;9.30;;;;;;;-3.07;100.00;94839.38;1028211;28;20081;-78
2021/01/21 01:18:06;;;;;;;19.50;10.88;;;;;;;-2.99;100.00;94851.78;1032078;28;20284;-77
2021/01/21 01:18:36;;;;;;;20.33;10.40;;;;;;;-2.99;100.00;94847.41;1036187;28;20256;-77
2021/01/21 01:19:07;;;;;;;18.95;9.95;;;;;;;-3.18;100.00;94832.44;1032102;28;20018;-78
2021/01/21 01:19:38;;;;;;;20.08;10.55;;;;;;;-3.05;100.00;94860.84;1032162;28;20073;-77
2021/01/21 01:20:10;;;;;;;19.75;10.25;;;;;;;-3.12;100.00;94851.91;1036224;28;20022;-77
2021/01/21 01:20:41;;;;;;;18.52;9.75;;;;;;;-3.16;100.00;94845.31;1020179;29;20039;-78
2021/01/21 01:21:11;;;;;;;19.70;10.85;;;;;;;-3.19;100.00;94845.53;1032003;28;20261;-78
2021/01/21 01:21:42;;;;;;;19.05;10.65;;;;;;;-3.04;100.00;94871.13;1024116;28;20094;-77
2021/01/21 01:22:15;;;;;;;20.52;10.40;;;;;;;-3.11;100.00;94853.56;1036194;28;20018;-77
2021/01/21 01:22:53;;;;;;;17.08;9.80;;;;;;;-2.93;100.00;94865.09;1024065;28;20896;-77
2021/01/21 01:23:24;;;;;;;16.55;10.00;;;;;;;-3.03;100.00;94849.41;1036283;28;20260;-77
2021/01/21 01:23:54;;;;;;;18.65;9.93;;;;;;;-2.99;100.00;94854.38;1028097;28;20258;-77
2021/01/21 01:24:25;;;;;;;17.63;9.93;;;;;;;-3.00;100.00;94858.72;1036307;28;20030;-77
2021/01/21 01:24:56;;;;;;;17.10;9.88;;;;;;;-2.94;100.00;94866.03;1036021;28;20028;-77
2021/01/21 01:25:27;;;;;;;15.02;9.30;;;;;;;-2.94;100.00;94870.44;1028165;28;20031;-77
2021/01/21 01:25:58;;;;;;;16.73;9.63;;;;;;;-2.91;100.00;94864.97;1036161;28;20490;-77
2021/01/21 01:26:29;;;;;;;20.83;11.02;;;;;;;-3.01;100.00;94849.31;1020284;29;20044;-78
2021/01/21 01:26:59;;;;;;;17.55;10.38;;;;;;;-2.92;100.00;94858.13;1028033;28;20262;-77
2021/01/21 01:27:30;;;;;;;17.73;9.80;;;;;;;-2.93;100.00;94866.88;1032085;28;20514;-77
2021/01/21 01:28:02;;;;;;;16.55;9.75;;;;;;;-3.05;100.00;94840.94;1024075;28;20015;-77
2021/01/21 01:28:37;;;;;;;20.90;10.52;;;;;;;-2.91;100.00;94864.97;1032193;28;20022;-77
2021/01/21 01:29:08;;;;;;;18.05;9.68;;;;;;;-3.00;100.00;94850.13;1024062;28;20255;-78
2021/01/21 01:29:39;;;;;;;19.30;10.10;;;;;;;-3.06;100.00;94831.47;1032023;28;20249;-77
2021/01/21 01:30:12;;;;;;;18.67;11.07;;;;;;;-3.00;100.00;94840.53;1028138;28;20018;-77
2021/01/21 01:30:43;;;;;;;18.05;9.43;;;;;;;-3.05;100.00;94847.88;1032195;28;20066;-77
2021/01/21 01:31:14;;;;;;;18.25;10.70;;;;;;;-2.97;100.00;94849.88;1028005;28;20097;-78
2021/01/21 01:31:45;;;;;;;17.17;10.13;;;;;;;-2.92;100.00;94863.34;1028119;28;20039;-77
2021/01/21 01:32:16;;;;;;;20.67;9.88;;;;;;;-2.96;100.00;94856.72;1036102;28;20021;-78
2021/01/21 01:32:47;;;;;;;17.25;10.07;;;;;;;-3.11;100.00;94843.19;1028026;28;20022;-77
2021/01/21 01:33:17;;;;;;;17.90;9.63;;;;;;;-2.95;100.00;94864.38;1027994;28;20046;-78
2021/01/21 01:33:48;;;;;;;16.80;9.27;;;;;;;-2.96;100.00;94867.09;1031987;28;20316;-77
2021/01/21 01:34:20;;;;;;;19.15;10.63;;;;;;;-2.92;100.00;94864.16;1032094;28;20390;-77
2021/01/21 01:34:50;;;;;;;17.25;9.98;;;;;;;-2.96;100.00;94843.72;1032242;28;20344;-77
2021/01/21 01:35:21;;;;;;;21.30;11.38;;;;;;;-3.04;100.00;94829.56;1036068;28;20253;-78
2021/01/21 01:35:52;;;;;;;17.95;10.60;;;;;;;-2.89;100.00;94848.34;1032027;28;20176;-77
2021/01/21 01:36:23;;;;;;;17.00;10.73;;;;;;;-2.91;100.00;94851.97;1036250;28;20030;-77
2021/01/21 01:36:54;;;;;;;19.55;10.48;;;;;;;-2.92;100.00;94853.75;1032148;28;20023;-78
2021/01/21 01:37:25;;;;;;;21.17;10.63;;;;;;;-2.90;100.00;94846.66;1032049;28;20018;-78
2021/01/21 01:37:56;;;;;;;16.63;9.68;;;;;;;-2.92;100.00;94845.16;1035988;28;20030;-78
2021/01/21 01:38:27;;;;;;;18.42;10.35;;;;;;;-3.06;100.00;94825.47;1028088;28;20361;-77
2021/01/21 01:38:58;;;;;;;17.92;10.60;;;;;;;-2.88;100.00;94852.56;1032145;28;20029;-77
2021/01/21 01:39:29;;;;;;;18.20;10.18;;;;;;;-2.93;100.00;94831.31;1019972;29;20290;-77
2021/01/21 01:40:00;;;;;;;17.33;10.35;;;;;;;-2.88;100.00;94855.16;1027956;28;20454;-78
2021/01/21 01:40:31;;;;;;;16.13;10.02;;;;;;;-2.87;100.00;94848.22;1024104;28;20097;-77
2021/01/21 01:41:01;;;;;;;19.05;10.27;;;;;;;-2.87;100.00;94851.63;1024041;29;20121;-78
2021/01/21 01:41:32;;;;;;;18.23;10.48;;;;;;;-2.88;100.00;94844.75;1027880;28;20326;-78
2021/01/21 01:42:10;;;;;;;16.30;10.23;;;;;;;-2.95;100.00;94835.81;1028011;28;20057;-77
2021/01/21 01:42:41;;;;;;;18.20;10.13;;;;;;;-2.85;100.00;94851.50;1028097;28;20057;-77
2021/01/21 01:43:12;;;;;;;21.27;10.70;;;;;;;-2.90;100.00;94833.69;1028088;28;20246;-77
2021/01/21 01:43:43;;;;;;;18.48;10.15;;;;;;;-2.78;100.00;94844.06;1027999;28;20262;-78
2021/01/21 01:44:14;;;;;;;17.67;10.02;;;;;;;-2.79;100.00;94838.03;1032131;28;20081;-78
2021/01/21 01:44:45;;;;;;;16.20;9.68;;;;;;;-2.83;100.00;94835.81;1028032;28;20300;-78
2021/01/21 01:45:16;;;;;;;18.25;10.40;;;;;;;-2.82;100.00;94833.09;1028094;28;20014;-77
2021/01/21 01:45:47;;;;;;;17.73;9.85;;;;;;;-2.83;100.00;94833.22;1023984;28;20027;-77
2021/01/21 01:46:17;;;;;;;20.25;10.55;;;;;;;-2.82;100.00;94833.09;1036060;28;20018;-77
2021/01/21 01:46:48;;;;;;;17.65;9.82;;;;;;;-2.80;100.00;94830.34;1028139;28;20019;-78
2021/01/21 01:47:19;;;;;;;16.95;10.05;;;;;;;-2.81;100.00;94839.09;1024025;29;20487;-77
2021/01/21 01:47:50;;;;;;;18.05;9.77;;;;;;;-3.17;100.00;94773.53;1031798;28;20025;-78
2021/01/21 01:48:21;;;;;;;18.58;10.20;;;;;;;-2.94;100.00;94814.09;1023998;28;20026;-77
2021/01/21 01:48:56;;;;;;;19.27;11.05;;;;;;;-2.80;100.00;94835.53;1036152;28;20498;-77
2021/01/21 01:49:27;;;;;;;18.55;10.23;;;;;;;-2.87;100.00;94824.84;1024027;28;20388;-77
2021/01/21 01:49:58;;;;;;;19.75;10.48;;;;;;;-2.75;100.00;94836.00;1035769;28;20060;-77
2021/01/21 01:50:29;;;;;;;20.02;10.55;;;;;;;-2.72;100.00;94838.34;1031960;28;20035;-77
2021/01/21 01:51:00;;;;;;;19.15;10.35;;;;;;;-2.77;100.00;94836.16;1032224;28;20498;-77
2021/01/21 01:51:31;;;;;;;18.42;10.95;;;;;;;-2.79;100.00;94847.59;1036153;28;20727;-77
2021/01/21 01:52:02;;;;;;;17.05;10.05;;;;;;;-2.79;100.00;94840.63;1031940;28;20262;-78
2021/01/21 01:52:33;;;;;;;17.38;9.95;;;;;;;-2.76;100.00;94836.97;1035947;28;20595;-77
2021/01/21 01:53:04;;;;;;;17.92;9.90;;;;;;;-2.74;100.00;94835.06;1036136;28;20120;-77
2021/01/21 01:53:34;;;;;;;18.55;9.60;;;;;;;-2.72;100.00;94836.56;1036124;28;20029;-77
2021/01/21 01:54:06;;;;;;;17.27;10.13;;;;;;;-2.78;100.00;94833.66;1023903;28;20257;-78
2021/01/21 01:54:36;;;;;;;20.25;10.73;;;;;;;-2.92;100.00;94814.81;1036039;28;20486;-78
2021/01/21 01:55:09;;;;;;;19.73;10.63;;;;;;;-2.80;100.00;94825.16;1032086;28;20265;-77
2021/01/21 01:55:40;;;;;;;17.00;10.57;;;;;;;-2.81;100.00;94826.13;1028025;28;20023;-77
2021/01/21 01:56:11;;;;;;;17.58;10.13;;;;;;;-2.92;100.00;94807.00;1031967;28;20026;-78
2021/01/21 01:56:41;;;;;;;17.23;10.20;;;;;;;-2.82;100.00;94821.84;1023871;29;20027;-78
2021/01/21 01:57:12;;;;;;;17.60;9.77;;;;;;;-2.78;100.00;94834.50;1028106;28;20046;-77
2021/01/21 01:57:43;;;;;;;17.83;9.32;;;;;;;-2.77;100.00;94830.09;1024034;29;20516;-77
2021/01/21 01:58:14;;;;;;;17.58;10.07;;;;;;;-2.74;100.00;94824.66;1027914;28;20488;-78
2021/01/21 01:58:45;;;;;;;18.23;10.18;;;;;;;-2.72;100.00;94833.16;1032035;28;20035;-77
2021/01/21 01:59:15;;;;;;;17.13;10.13;;;;;;;-2.72;100.00;94835.75;1040192;28;20029;-78
2021/01/21 01:59:48;;;;;;;18.90;10.75;;;;;;;-2.80;100.00;94814.75;1032044;28;20536;-77
2021/01/21 02:00:20;;;;;;;16.60;9.82;;;;;;;-2.68;100.00;94830.22;1035958;28;20406;-78
2021/01/21 02:00:53;;;;;;;18.00;10.65;;;;;;;-2.66;100.00;94827.50;1036002;28;20497;-77
2021/01/21 02:01:24;;;;;;;17.98;9.82;;;;;;;-2.66;100.00;94822.28;1036084;28;20426;-78
2021/01/21 02:01:56;;;;;;;19.17;10.02;;;;;;;-2.66;100.00;94833.50;1036025;28;20281;-78
2021/01/21 02:02:28;;;;;;;18.52;10.40;;;;;;;-2.79;100.00;94806.03;1035870;28;20028;-78
2021/01/21 02:02:59;;;;;;;17.35;10.25;;;;;;;-2.78;100.00;94820.69;1031885;28;20539;-77
2021/01/21 02:03:30;;;;;;;19.45;10.55;;;;;;;-2.89;100.00;94824.97;1036090;28;20252;-78
2021/01/21 02:04:01;;;;;;;18.20;9.73;;;;;;;-3.17;100.00;94761.41;1036145;28;20386;-77
2021/01/21 02:04:32;;;;;;;17.90;10.18;;;;;;;-2.75;100.00;94820.41;1031907;28;20038;-77
2021/01/21 02:05:03;;;;;;;17.05;10.05;;;;;;;-2.72;100.00;94815.78;1040125;28;20095;-78
2021/01/21 02:05:34;;;;;;;16.90;10.20;;;;;;;-2.80;100.00;94797.41;1036100;28;20022;-77
2021/01/21 02:06:05;;;;;;;17.30;10.50;;;;;;;-2.71;100.00;94817.47;1032020;28;20030;-77
2021/01/21 02:06:36;;;;;;;18.88;10.43;;;;;;;-2.81;100.00;94805.34;1031950;28;20032;-77
2021/01/21 02:07:07;;;;;;;21.13;11.40;;;;;;;-2.68;100.00;94814.63;1035972;28;20022;-77
2021/01/21 02:07:38;;;;;;;17.52;9.82;;;;;;;-2.71;100.00;94814.03;1023869;28;20106;-78
2021/01/21 02:08:09;;;;;;;18.45;10.35;;;;;;;-2.83;100.00;94822.81;1019550;29;20492;-77
2021/01/21 02:08:40;;;;;;;19.88;10.48;;;;;;;-2.78;100.00;94825.88;1031655;28;20026;-78
2021/01/21 02:09:10;;;;;;;18.67;10.30;;;;;;;-2.81;100.00;94818.31;1019916;29;20032;-77
2021/01/21 02:09:41;;;;;;;21.02;10.50;;;;;;;-2.88;100.00;94805.00;1031969;28;20023;-77
2021/01/21 02:10:12;;;;;;;17.60;10.10;;;;;;;-2.87;100.00;94802.28;1027984;28;20031;-77
2021/01/21 02:10:46;;;;;;;21.38;10.40;;;;;;;-2.76;100.00;94816.19;1027924;28;20023;-77
2021/01/21 02:11:31;;;;;;;18.20;10.10;;;;;;;-2.71;100.00;94816.63;1023904;29;20346;-77
2021/01/21 02:12:08;;;;;;;15.02;9.00;;;;;;;-2.71;100.00;94814.03;1036019;28;20261;-77
2021/01/21 02:12:58;;;;;;;17.75;10.07;;;;;;;-2.83;100.00;94802.84;1027862;28;20274;-78
2021/01/21 02:13:39;;;;;;;20.48;9.98;;;;;;;-2.90;100.00;94825.88;1027987;28;20258;-78
2021/01/21 02:14:15;;;;;;;18.63;10.15;;;;;;;-2.96;100.00;94825.53;1027924;28;20025;-77
2021/01/21 02:15:05;;;;;;;20.77;10.52;;;;;;;-2.93;100.00;94815.75;1039989;28;20311;-77
2021/01/21 02:15:48;;;;;;;20.65;10.35;;;;;;;-2.99;100.00;94790.28;1027985;28;20337;-77
2021/01/21 02:16:33;;;;;;;18.35;9.98;;;;;;;-2.93;100.00;94796.75;1036077;28;20077;-77
2021/01/21 02:17:05;;;;;;;17.52;9.30;;;;;;;-2.83;100.00;94802.03;1035861;28;20327;-77
2021/01/21 02:17:56;;;;;;;19.63;10.10;;;;;;;-2.83;100.00;94802.84;1035966;28;20253;-77
2021/01/21 02:18:37;;;;;;;20.70;9.93;;;;;;;-2.80;100.00;94817.34;1023934;28;20045;-77
2021/01/21 02:19:18;;;;;;;19.13;10.20;;;;;;;-2.82;100.00;94811.47;1035899;28;20261;-78
2021/01/21 02:20:00;;;;;;;18.70;10.07;;;;;;;-3.04;100.00;94803.63;1035937;28;20265;-77
2021/01/21 02:20:50;;;;;;;20.73;10.63;;;;;;;-2.85;100.00;94826.34;1040145;28;20259;-77
2021/01/21 02:21:39;;;;;;;19.92;10.40;;;;;;;-2.91;100.00;94808.69;1031756;28;20615;-77
2021/01/21 02:22:12;;;;;;;16.85;9.60;;;;;;;-2.92;100.00;94806.19;1027895;28;20349;-77
2021/01/21 02:23:03;;;;;;;18.48;9.88;;;;;;;-2.82;100.00;94816.66;1032026;28;20026;-77
2021/01/21 02:23:54;;;;;;;19.00;10.95;;;;;;;-2.81;100.00;94829.53;1019798;29;20342;-78
2021/01/21 02:24:42;;;;;;;16.80;9.80;;;;;;;-2.97;100.00;94824.72;1035925;28;20351;-77
2021/01/21 02:25:13;;;;;;;16.92;10.10;;;;;;;-2.88;100.00;94826.59;1031887;28;20257;-77
2021/01/21 02:25:47;;;;;;;19.00;9.32;;;;;;;-2.92;100.00;94801.81;1027818;28;20266;-78